createdAt,value
2023-04-02T00:02:58.448Z,0.7
2023-04-02T00:08:14.346Z,0.7
2023-04-02T00:13:31.888Z,0.74
2023-04-02T00:18:50.433Z,0.68
2023-04-02T00:24:06.729Z,0.69
2023-04-02T00:29:22.762Z,0.69
2023-04-02T00:34:38.910Z,0.68
2023-04-02T00:39:56.506Z,0.68
2023-04-02T00:45:13.792Z,0.66
2023-04-02T00:50:31.228Z,0.67
2023-04-02T00:55:47.687Z,0.72
2023-04-02T01:01:05.324Z,0.66
2023-04-02T01:06:21.146Z,0.65
2023-04-02T01:11:37.835Z,0.69
2023-04-02T01:16:54.756Z,0.65
2023-04-02T01:22:11.832Z,0.65
2023-04-02T02:09:48.367Z,0.59
2023-04-02T02:14:59.381Z,0.55
2023-04-02T02:20:17.192Z,0.56
2023-04-02T02:25:35.041Z,0.56
2023-04-02T02:30:49.941Z,0.63
2023-04-02T02:36:06.926Z,0.63
2023-04-02T02:41:22.912Z,0.58
2023-04-02T02:46:40.831Z,0.65
2023-04-02T02:51:58.445Z,0.59
2023-04-02T02:57:15.615Z,0.57
2023-04-02T03:02:32.753Z,0.57
2023-04-02T03:07:48.972Z,0.61
2023-04-02T03:32:16.239Z,0.66
2023-04-02T03:37:25.969Z,0.66
2023-04-02T03:42:43.384Z,0.66
2023-04-02T03:48:00.520Z,0.67
2023-04-02T03:53:17.652Z,0.72
2023-04-02T03:58:34.428Z,0.68
2023-04-02T04:03:50.999Z,0.72
2023-04-02T04:09:07.404Z,0.69
2023-04-02T04:14:24.177Z,0.73
2023-04-02T04:19:40.346Z,0.71
2023-04-02T04:24:57.840Z,0.76
2023-04-02T04:30:13.966Z,0.79
2023-04-02T04:35:30.461Z,0.84
2023-04-02T04:40:46.940Z,0.83
2023-04-02T04:46:03.493Z,0.9
2023-04-02T04:51:19.421Z,0.87
2023-04-02T04:56:37.303Z,0.85
2023-04-02T05:01:53.910Z,0.88
2023-04-02T05:07:10.424Z,0.86
2023-04-02T05:12:27.927Z,0.9
2023-04-02T05:17:44.197Z,0.91
2023-04-02T05:23:00.695Z,0.89
2023-04-02T05:28:16.811Z,0.92
2023-04-02T05:33:33.624Z,0.87
2023-04-02T05:38:49.988Z,0.94
2023-04-02T05:44:06.125Z,0.96
2023-04-02T05:49:22.899Z,0.88
2023-04-02T05:54:41.786Z,0.9
2023-04-02T05:59:58.264Z,0.91
2023-04-02T06:05:14.317Z,0.91
2023-04-02T06:10:31.550Z,0.88
2023-04-02T06:15:48.667Z,0.85
2023-04-02T06:21:05.067Z,0.82
2023-04-02T06:26:21.272Z,0.83
2023-04-02T07:08:44.378Z,0.8
2023-04-02T07:13:54.131Z,0.76
2023-04-02T07:19:11.744Z,0.81
2023-04-02T07:24:27.865Z,0.75
2023-04-02T07:29:43.431Z,0.72
2023-04-02T07:35:01.096Z,0.73
2023-04-02T07:40:16.873Z,0.71
2023-04-02T07:45:35.164Z,0.64
2023-04-02T07:50:51.237Z,0.63
2023-04-02T07:56:08.189Z,0.68
2023-04-02T08:01:24.354Z,0.68
2023-04-02T08:06:41.470Z,0.64
2023-04-02T08:11:59.015Z,0.62
2023-04-02T08:17:15.716Z,0.58
2023-04-02T08:22:33.156Z,0.55
2023-04-02T08:27:50.585Z,0.55
2023-04-02T08:33:07.878Z,0.58
2023-04-02T08:38:23.609Z,0.57
2023-04-02T08:43:41.102Z,0.54
2023-04-02T08:48:58.595Z,0.57
2023-04-02T08:54:16.290Z,0.54
2023-04-02T08:59:32.855Z,0.47
2023-04-02T09:04:49.281Z,0.55
2023-04-02T09:10:06.446Z,0.55
2023-04-02T09:15:22.807Z,0.56
2023-04-02T09:20:39.868Z,0.52
2023-04-02T09:26:05.180Z,0.52
2023-04-02T09:31:13.676Z,0.59
2023-04-02T09:36:29.581Z,0.55
2023-04-02T09:42:06.187Z,0.54
2023-04-02T09:47:02.264Z,0.55
2023-04-02T09:52:18.950Z,0.54
2023-04-02T09:57:35.210Z,0.52
2023-04-02T10:02:52.319Z,0.52
2023-04-02T10:50:29.955Z,0.58
2023-04-02T10:55:39.924Z,0.49
2023-04-02T11:00:55.870Z,0.54
2023-04-02T11:06:12.323Z,0.54
2023-04-02T11:11:29.501Z,0.53
2023-04-02T11:16:46.815Z,0.5
2023-04-02T11:22:07.206Z,0.56
2023-04-02T11:27:19.404Z,0.52
2023-04-02T11:32:37.380Z,0.5
2023-04-02T11:37:54.456Z,0.53
2023-04-02T11:43:11.724Z,0.48
2023-04-02T11:48:28.091Z,0.52
2023-04-02T11:53:44.671Z,0.54
2023-04-02T11:59:02.782Z,0.51
2023-04-02T12:04:19.550Z,0.56
2023-04-02T12:09:36.989Z,0.61
2023-04-02T12:14:52.804Z,0.49
2023-04-02T12:20:10.536Z,0.51
2023-04-02T12:25:26.038Z,0.51
2023-04-02T12:30:43.990Z,0.48
2023-04-02T12:36:01.445Z,0.53
2023-04-02T12:41:19.544Z,0.51
2023-04-02T12:46:37.165Z,0.55
2023-04-02T12:51:53.942Z,0.57
2023-04-02T12:57:10.859Z,0.58
2023-04-02T13:02:27.617Z,0.55
2023-04-02T13:07:43.713Z,0.58
2023-04-02T13:13:01.182Z,0.58
2023-04-02T13:18:17.170Z,0.59
2023-04-02T13:23:34.110Z,0.57
2023-04-02T13:28:50.195Z,0.57
2023-04-02T13:34:06.430Z,0.51
2023-04-02T13:39:37.520Z,0.59
2023-04-02T13:44:54.595Z,0.56
2023-04-02T13:50:10.918Z,0.58
2023-04-02T13:55:27.627Z,0.62
2023-04-02T14:00:43.769Z,0.59
2023-04-02T14:05:59.911Z,0.61
2023-04-02T14:11:16.068Z,0.75
2023-04-02T14:16:33.805Z,0.68
2023-04-02T14:21:49.707Z,0.67
2023-04-02T14:27:05.798Z,0.67
2023-04-02T14:32:23.960Z,0.71
2023-04-02T14:37:40.675Z,0.68
2023-04-02T14:42:56.843Z,0.68
2023-04-02T14:48:13.169Z,0.71
2023-04-02T14:53:30.592Z,0.69
2023-04-02T14:58:47.843Z,0.66
2023-04-02T15:04:04.752Z,0.67
2023-04-02T15:09:22.269Z,0.66
2023-04-02T15:14:39.009Z,0.66
2023-04-02T15:19:55.132Z,0.71
2023-04-02T15:25:11.252Z,0.67
2023-04-02T15:30:27.678Z,0.67
2023-04-02T15:35:46.336Z,0.72
2023-04-02T15:41:03.564Z,0.67
2023-04-02T15:46:22.025Z,0.67
2023-04-02T16:28:41.170Z,0.66
2023-04-02T16:33:51.814Z,0.69
2023-04-02T16:39:09.030Z,0.64
2023-04-02T16:44:25.967Z,0.66
2023-04-02T16:49:44.565Z,0.62
2023-04-02T16:54:59.414Z,0.63
2023-04-02T17:00:15.735Z,0.68
2023-04-02T17:05:31.078Z,0.63
2023-04-02T17:10:48.026Z,0.58
2023-04-02T17:16:03.683Z,0.57
2023-04-02T17:21:20.986Z,0.63
2023-04-02T17:26:37.011Z,0.62
2023-04-02T17:31:55.932Z,0.6
2023-04-02T17:37:12.716Z,0.57
2023-04-02T17:42:29.031Z,0.6
2023-04-02T17:47:45.848Z,0.58
2023-04-02T17:53:02.943Z,0.66
2023-04-02T17:58:19.266Z,0.53
2023-04-02T18:03:35.626Z,0.56
2023-04-02T18:08:51.403Z,0.59
2023-04-02T18:14:07.715Z,0.53
2023-04-02T18:19:23.239Z,0.56
2023-04-02T18:24:39.912Z,0.53
2023-04-02T18:29:59.425Z,0.51
2023-04-02T18:35:16.818Z,0.52
2023-04-02T18:40:33.203Z,0.57
2023-04-02T18:45:50.613Z,0.59
2023-04-02T18:51:07.387Z,0.6
2023-04-02T18:56:23.494Z,0.6
2023-04-02T19:01:47.155Z,0.6
2023-04-02T19:06:56.835Z,0.57
2023-04-02T19:12:14.275Z,0.62
2023-04-02T19:17:31.063Z,0.54
2023-04-02T19:22:46.687Z,0.6
2023-04-02T20:05:07.451Z,0.76
2023-04-02T20:10:17.151Z,0.79
2023-04-02T20:15:35.274Z,0.78
2023-04-02T20:20:51.077Z,0.7
2023-04-02T20:26:08.417Z,0.72
2023-04-02T20:31:24.897Z,0.64
2023-04-02T20:36:40.063Z,0.66
2023-04-02T20:41:56.675Z,0.64
2023-04-02T20:47:12.399Z,0.62
2023-04-02T20:52:29.074Z,0.7
2023-04-02T20:57:45.166Z,0.69
2023-04-02T21:03:01.745Z,0.64
2023-04-02T21:08:17.700Z,0.67
2023-04-02T21:13:33.720Z,0.72
2023-04-02T21:18:50.457Z,0.7
2023-04-02T21:24:09.346Z,0.72
2023-04-02T21:29:27.406Z,0.75
2023-04-02T21:34:43.578Z,0.79
2023-04-02T21:39:59.073Z,0.72
2023-04-02T21:45:16.049Z,0.84
2023-04-02T21:50:33.363Z,0.83
2023-04-02T21:55:50.589Z,0.8
2023-04-02T22:01:28.315Z,0.87
2023-04-02T22:06:24.249Z,0.77
2023-04-02T22:11:40.673Z,0.8
2023-04-02T22:16:58.373Z,1.02
2023-04-02T22:22:16.672Z,0.88
2023-04-02T22:27:33.485Z,0.82
2023-04-02T22:32:51.205Z,0.87
2023-04-02T22:38:06.425Z,0.81
2023-04-02T22:43:23.718Z,0.84
2023-04-02T22:48:41.243Z,0.87
2023-04-02T22:53:57.525Z,0.88
2023-04-02T22:59:13.571Z,0.94
2023-04-02T23:36:18.538Z,0.89
2023-04-02T23:41:28.043Z,0.79
2023-04-02T23:46:44.336Z,0.93
2023-04-02T23:52:00.850Z,0.89
2023-04-02T23:57:18.524Z,0.75
